sensor_id;sensor_type;location;lat;lon;timestamp;P1;durP1;ratioP1;P2;durP2;ratioP2
44438;SDS011;30145;48.874;10.186;2024-01-10T00:02:24;22.03;;;11.20;;
44438;SDS011;30145;48.874;10.186;2024-01-10T00:04:51;20.93;;;11.30;;
44438;SDS011;30145;48.874;10.186;2024-01-10T00:07:18;24.77;;;13.40;;
44438;SDS011;30145;48.874;10.186;2024-01-10T00:09:45;23.50;;;11.60;;
44438;SDS011;30145;48.874;10.186;2024-01-10T00:12:12;21.03;;;11.17;;
44438;SDS011;30145;48.874;10.186;2024-01-10T00:14:39;17.67;;;9.73;;
44438;SDS011;30145;48.874;10.186;2024-01-10T00:17:06;16.70;;;8.73;;
44438;SDS011;30145;48.874;10.186;2024-01-10T00:19:34;16.80;;;8.67;;
44438;SDS011;30145;48.874;10.186;2024-01-10T00:22:01;15.37;;;9.33;;
44438;SDS011;30145;48.874;10.186;2024-01-10T00:24:28;14.20;;;8.47;;
44438;SDS011;30145;48.874;10.186;2024-01-10T00:26:55;15.90;;;8.10;;
44438;SDS011;30145;48.874;10.186;2024-01-10T00:29:22;15.10;;;8.63;;
44438;SDS011;30145;48.874;10.186;2024-01-10T00:31:49;13.37;;;7.57;;
44438;SDS011;30145;48.874;10.186;2024-01-10T00:34:17;12.30;;;7.60;;
44438;SDS011;30145;48.874;10.186;2024-01-10T00:36:44;19.20;;;11.17;;
44438;SDS011;30145;48.874;10.186;2024-01-10T00:39:11;22.53;;;12.00;;
44438;SDS011;30145;48.874;10.186;2024-01-10T00:41:38;19.17;;;10.03;;
44438;SDS011;30145;48.874;10.186;2024-01-10T00:44:06;20.03;;;10.50;;
44438;SDS011;30145;48.874;10.186;2024-01-10T00:46:33;21.23;;;11.30;;
44438;SDS011;30145;48.874;10.186;2024-01-10T00:49:00;22.43;;;11.27;;
44438;SDS011;30145;48.874;10.186;2024-01-10T00:51:27;23.07;;;10.03;;
44438;SDS011;30145;48.874;10.186;2024-01-10T00:53:54;21.77;;;9.90;;
44438;SDS011;30145;48.874;10.186;2024-01-10T00:56:21;17.57;;;8.77;;
44438;SDS011;30145;48.874;10.186;2024-01-10T00:58:48;13.87;;;7.63;;
44438;SDS011;30145;48.874;10.186;2024-01-10T01:01:15;13.50;;;8.73;;
44438;SDS011;30145;48.874;10.186;2024-01-10T01:03:42;12.60;;;7.37;;
44438;SDS011;30145;48.874;10.186;2024-01-10T01:06:09;12.87;;;7.97;;
44438;SDS011;30145;48.874;10.186;2024-01-10T01:08:37;15.27;;;8.57;;
44438;SDS011;30145;48.874;10.186;2024-01-10T01:11:04;12.40;;;7.80;;
44438;SDS011;30145;48.874;10.186;2024-01-10T01:13:31;11.70;;;7.70;;
44438;SDS011;30145;48.874;10.186;2024-01-10T01:15:58;12.03;;;7.30;;
44438;SDS011;30145;48.874;10.186;2024-01-10T01:18:25;14.13;;;8.10;;
44438;SDS011;30145;48.874;10.186;2024-01-10T01:20:52;13.93;;;7.87;;
44438;SDS011;30145;48.874;10.186;2024-01-10T01:23:19;14.97;;;7.93;;
44438;SDS011;30145;48.874;10.186;2024-01-10T01:25:48;15.80;;;7.80;;
44438;SDS011;30145;48.874;10.186;2024-01-10T01:28:16;12.93;;;7.90;;
44438;SDS011;30145;48.874;10.186;2024-01-10T01:30:44;16.07;;;8.10;;
44438;SDS011;30145;48.874;10.186;2024-01-10T01:33:11;14.93;;;8.10;;
44438;SDS011;30145;48.874;10.186;2024-01-10T01:35:38;13.40;;;8.30;;
44438;SDS011;30145;48.874;10.186;2024-01-10T01:38:04;12.87;;;8.00;;
44438;SDS011;30145;48.874;10.186;2024-01-10T01:40:32;13.33;;;7.90;;
44438;SDS011;30145;48.874;10.186;2024-01-10T01:42:59;12.50;;;8.33;;
44438;SDS011;30145;48.874;10.186;2024-01-10T01:45:26;13.87;;;8.10;;
44438;SDS011;30145;48.874;10.186;2024-01-10T01:47:53;16.30;;;8.43;;
44438;SDS011;30145;48.874;10.186;2024-01-10T01:50:20;13.27;;;7.87;;
44438;SDS011;30145;48.874;10.186;2024-01-10T01:52:47;15.63;;;8.13;;
44438;SDS011;30145;48.874;10.186;2024-01-10T01:55:14;13.63;;;7.93;;
44438;SDS011;30145;48.874;10.186;2024-01-10T01:57:41;19.43;;;10.03;;
44438;SDS011;30145;48.874;10.186;2024-01-10T02:00:09;15.27;;;7.77;;
44438;SDS011;30145;48.874;10.186;2024-01-10T02:02:36;13.90;;;8.13;;
44438;SDS011;30145;48.874;10.186;2024-01-10T02:05:03;13.83;;;7.50;;
44438;SDS011;30145;48.874;10.186;2024-01-10T02:07:30;13.03;;;8.23;;
44438;SDS011;30145;48.874;10.186;2024-01-10T02:09:57;13.23;;;7.63;;
44438;SDS011;30145;48.874;10.186;2024-01-10T02:12:25;11.80;;;8.20;;
44438;SDS011;30145;48.874;10.186;2024-01-10T02:14:52;15.97;;;8.93;;
44438;SDS011;30145;48.874;10.186;2024-01-10T02:17:19;15.83;;;8.10;;
44438;SDS011;30145;48.874;10.186;2024-01-10T02:19:46;13.07;;;7.63;;
44438;SDS011;30145;48.874;10.186;2024-01-10T02:22:13;13.80;;;8.33;;
44438;SDS011;30145;48.874;10.186;2024-01-10T02:24:40;14.97;;;8.17;;
44438;SDS011;30145;48.874;10.186;2024-01-10T02:27:07;13.97;;;8.47;;
44438;SDS011;30145;48.874;10.186;2024-01-10T02:29:34;12.73;;;8.20;;
44438;SDS011;30145;48.874;10.186;2024-01-10T02:32:02;14.67;;;8.57;;
44438;SDS011;30145;48.874;10.186;2024-01-10T02:34:29;15.63;;;8.50;;
44438;SDS011;30145;48.874;10.186;2024-01-10T02:36:57;16.47;;;8.93;;
44438;SDS011;30145;48.874;10.186;2024-01-10T02:39:24;13.70;;;8.33;;
44438;SDS011;30145;48.874;10.186;2024-01-10T02:41:51;16.40;;;9.27;;
44438;SDS011;30145;48.874;10.186;2024-01-10T02:44:18;11.93;;;7.57;;
44438;SDS011;30145;48.874;10.186;2024-01-10T02:46:46;17.23;;;8.83;;
44438;SDS011;30145;48.874;10.186;2024-01-10T02:49:14;13.20;;;8.20;;
44438;SDS011;30145;48.874;10.186;2024-01-10T02:51:41;15.40;;;7.83;;
44438;SDS011;30145;48.874;10.186;2024-01-10T02:54:09;14.83;;;8.80;;
44438;SDS011;30145;48.874;10.186;2024-01-10T02:56:37;13.53;;;7.93;;
44438;SDS011;30145;48.874;10.186;2024-01-10T02:59:04;11.63;;;8.30;;
44438;SDS011;30145;48.874;10.186;2024-01-10T03:01:33;13.87;;;8.37;;
44438;SDS011;30145;48.874;10.186;2024-01-10T03:04:00;13.43;;;8.00;;
44438;SDS011;30145;48.874;10.186;2024-01-10T03:06:28;13.77;;;7.97;;
44438;SDS011;30145;48.874;10.186;2024-01-10T03:08:55;14.97;;;8.93;;
44438;SDS011;30145;48.874;10.186;2024-01-10T03:11:23;15.23;;;7.90;;
44438;SDS011;30145;48.874;10.186;2024-01-10T03:13:51;15.03;;;8.63;;
44438;SDS011;30145;48.874;10.186;2024-01-10T03:16:27;14.10;;;8.53;;
44438;SDS011;30145;48.874;10.186;2024-01-10T03:18:54;33.83;;;16.57;;
44438;SDS011;30145;48.874;10.186;2024-01-10T03:21:21;16.87;;;10.17;;
44438;SDS011;30145;48.874;10.186;2024-01-10T03:23:54;14.40;;;8.27;;
44438;SDS011;30145;48.874;10.186;2024-01-10T03:26:23;13.83;;;7.83;;
44438;SDS011;30145;48.874;10.186;2024-01-10T03:28:51;12.77;;;8.30;;
44438;SDS011;30145;48.874;10.186;2024-01-10T03:31:19;15.73;;;8.03;;
44438;SDS011;30145;48.874;10.186;2024-01-10T03:33:46;13.87;;;7.80;;
44438;SDS011;30145;48.874;10.186;2024-01-10T03:36:17;13.63;;;8.53;;
44438;SDS011;30145;48.874;10.186;2024-01-10T03:38:45;16.00;;;8.33;;
44438;SDS011;30145;48.874;10.186;2024-01-10T03:41:13;17.53;;;8.63;;
44438;SDS011;30145;48.874;10.186;2024-01-10T03:43:49;16.57;;;9.40;;
44438;SDS011;30145;48.874;10.186;2024-01-10T03:46:17;14.17;;;8.80;;
44438;SDS011;30145;48.874;10.186;2024-01-10T03:48:45;16.33;;;9.17;;
44438;SDS011;30145;48.874;10.186;2024-01-10T03:51:15;16.03;;;8.57;;
44438;SDS011;30145;48.874;10.186;2024-01-10T03:53:44;17.93;;;8.27;;
44438;SDS011;30145;48.874;10.186;2024-01-10T03:56:12;15.30;;;9.23;;
44438;SDS011;30145;48.874;10.186;2024-01-10T03:58:39;17.00;;;9.37;;
44438;SDS011;30145;48.874;10.186;2024-01-10T04:01:07;14.53;;;8.60;;
44438;SDS011;30145;48.874;10.186;2024-01-10T04:03:36;15.13;;;8.30;;
44438;SDS011;30145;48.874;10.186;2024-01-10T04:06:03;13.93;;;9.13;;
44438;SDS011;30145;48.874;10.186;2024-01-10T04:08:31;15.13;;;9.10;;
44438;SDS011;30145;48.874;10.186;2024-01-10T04:10:58;14.40;;;8.63;;
44438;SDS011;30145;48.874;10.186;2024-01-10T04:13:26;17.90;;;9.17;;
44438;SDS011;30145;48.874;10.186;2024-01-10T04:15:54;14.93;;;9.03;;
44438;SDS011;30145;48.874;10.186;2024-01-10T04:18:21;18.97;;;9.33;;
44438;SDS011;30145;48.874;10.186;2024-01-10T04:20:49;13.60;;;8.50;;
44438;SDS011;30145;48.874;10.186;2024-01-10T04:23:16;15.23;;;8.43;;
44438;SDS011;30145;48.874;10.186;2024-01-10T04:25:43;14.60;;;8.47;;
44438;SDS011;30145;48.874;10.186;2024-01-10T04:28:10;16.27;;;9.43;;
44438;SDS011;30145;48.874;10.186;2024-01-10T04:30:37;15.77;;;8.47;;
44438;SDS011;30145;48.874;10.186;2024-01-10T04:33:05;15.53;;;8.97;;
44438;SDS011;30145;48.874;10.186;2024-01-10T04:35:32;16.27;;;8.97;;
44438;SDS011;30145;48.874;10.186;2024-01-10T04:38:00;16.33;;;9.33;;
44438;SDS011;30145;48.874;10.186;2024-01-10T04:40:27;18.93;;;10.90;;
44438;SDS011;30145;48.874;10.186;2024-01-10T04:42:54;27.93;;;14.80;;
44438;SDS011;30145;48.874;10.186;2024-01-10T04:45:21;26.57;;;16.20;;
44438;SDS011;30145;48.874;10.186;2024-01-10T04:47:56;21.90;;;12.20;;
44438;SDS011;30145;48.874;10.186;2024-01-10T04:50:23;21.90;;;12.27;;
44438;SDS011;30145;48.874;10.186;2024-01-10T04:52:51;23.80;;;13.03;;
44438;SDS011;30145;48.874;10.186;2024-01-10T04:55:18;17.27;;;10.87;;
44438;SDS011;30145;48.874;10.186;2024-01-10T04:57:45;17.70;;;10.07;;
44438;SDS011;30145;48.874;10.186;2024-01-10T05:00:12;18.17;;;10.53;;
44438;SDS011;30145;48.874;10.186;2024-01-10T05:02:40;19.57;;;9.87;;
44438;SDS011;30145;48.874;10.186;2024-01-10T05:05:07;18.90;;;12.27;;
44438;SDS011;30145;48.874;10.186;2024-01-10T05:07:34;15.80;;;10.47;;
44438;SDS011;30145;48.874;10.186;2024-01-10T05:10:01;14.53;;;9.83;;
44438;SDS011;30145;48.874;10.186;2024-01-10T05:12:28;15.60;;;9.90;;
44438;SDS011;30145;48.874;10.186;2024-01-10T05:14:55;18.80;;;10.43;;
44438;SDS011;30145;48.874;10.186;2024-01-10T05:17:22;15.90;;;9.57;;
44438;SDS011;30145;48.874;10.186;2024-01-10T05:19:50;17.03;;;10.07;;
44438;SDS011;30145;48.874;10.186;2024-01-10T05:22:17;15.53;;;10.37;;
44438;SDS011;30145;48.874;10.186;2024-01-10T05:24:44;21.37;;;12.73;;
44438;SDS011;30145;48.874;10.186;2024-01-10T05:27:11;17.83;;;11.13;;
44438;SDS011;30145;48.874;10.186;2024-01-10T05:29:38;19.40;;;10.47;;
44438;SDS011;30145;48.874;10.186;2024-01-10T05:32:05;19.90;;;10.70;;
44438;SDS011;30145;48.874;10.186;2024-01-10T05:34:34;16.27;;;9.63;;
44438;SDS011;30145;48.874;10.186;2024-01-10T05:37:01;19.73;;;10.77;;
44438;SDS011;30145;48.874;10.186;2024-01-10T05:39:29;19.13;;;10.47;;
44438;SDS011;30145;48.874;10.186;2024-01-10T05:41:57;18.67;;;11.73;;
44438;SDS011;30145;48.874;10.186;2024-01-10T05:44:24;20.17;;;11.87;;
44438;SDS011;30145;48.874;10.186;2024-01-10T05:46:51;26.03;;;13.33;;
44438;SDS011;30145;48.874;10.186;2024-01-10T05:49:18;18.10;;;11.17;;
44438;SDS011;30145;48.874;10.186;2024-01-10T05:51:45;27.03;;;13.97;;
44438;SDS011;30145;48.874;10.186;2024-01-10T05:54:13;24.97;;;13.10;;
44438;SDS011;30145;48.874;10.186;2024-01-10T05:56:40;27.37;;;14.23;;
44438;SDS011;30145;48.874;10.186;2024-01-10T05:59:07;31.43;;;16.43;;
44438;SDS011;30145;48.874;10.186;2024-01-10T06:01:34;26.47;;;13.60;;
44438;SDS011;30145;48.874;10.186;2024-01-10T06:04:01;26.13;;;12.97;;
44438;SDS011;30145;48.874;10.186;2024-01-10T06:06:28;26.07;;;14.30;;
44438;SDS011;30145;48.874;10.186;2024-01-10T06:08:55;21.30;;;13.40;;
44438;SDS011;30145;48.874;10.186;2024-01-10T06:11:22;21.43;;;13.53;;
44438;SDS011;30145;48.874;10.186;2024-01-10T06:13:50;22.27;;;13.17;;
44438;SDS011;30145;48.874;10.186;2024-01-10T06:16:19;22.30;;;12.87;;
44438;SDS011;30145;48.874;10.186;2024-01-10T06:18:46;36.53;;;18.97;;
44438;SDS011;30145;48.874;10.186;2024-01-10T06:21:13;27.40;;;14.70;;
44438;SDS011;30145;48.874;10.186;2024-01-10T06:23:40;22.30;;;12.77;;
44438;SDS011;30145;48.874;10.186;2024-01-10T06:26:07;21.60;;;12.93;;
44438;SDS011;30145;48.874;10.186;2024-01-10T06:28:34;23.10;;;13.53;;
44438;SDS011;30145;48.874;10.186;2024-01-10T06:31:01;28.53;;;14.63;;
44438;SDS011;30145;48.874;10.186;2024-01-10T06:33:29;24.23;;;13.60;;
44438;SDS011;30145;48.874;10.186;2024-01-10T06:35:56;36.63;;;17.90;;
44438;SDS011;30145;48.874;10.186;2024-01-10T06:38:23;33.17;;;16.67;;
44438;SDS011;30145;48.874;10.186;2024-01-10T06:40:50;24.50;;;13.33;;
44438;SDS011;30145;48.874;10.186;2024-01-10T06:43:17;25.97;;;14.67;;
44438;SDS011;30145;48.874;10.186;2024-01-10T06:45:44;48.00;;;20.30;;
44438;SDS011;30145;48.874;10.186;2024-01-10T06:48:11;26.37;;;15.23;;
44438;SDS011;30145;48.874;10.186;2024-01-10T06:50:39;31.93;;;14.93;;
44438;SDS011;30145;48.874;10.186;2024-01-10T06:53:06;23.93;;;13.40;;
44438;SDS011;30145;48.874;10.186;2024-01-10T06:55:34;22.50;;;14.03;;
44438;SDS011;30145;48.874;10.186;2024-01-10T06:58:01;34.57;;;17.00;;
44438;SDS011;30145;48.874;10.186;2024-01-10T07:00:29;42.43;;;20.23;;
44438;SDS011;30145;48.874;10.186;2024-01-10T07:03:00;21.53;;;13.27;;
44438;SDS011;30145;48.874;10.186;2024-01-10T07:05:28;22.40;;;12.83;;
44438;SDS011;30145;48.874;10.186;2024-01-10T07:07:58;23.90;;;13.57;;
44438;SDS011;30145;48.874;10.186;2024-01-10T07:10:25;24.23;;;14.83;;
44438;SDS011;30145;48.874;10.186;2024-01-10T07:12:55;28.73;;;14.97;;
44438;SDS011;30145;48.874;10.186;2024-01-10T07:15:22;36.57;;;16.60;;
44438;SDS011;30145;48.874;10.186;2024-01-10T07:17:49;29.87;;;17.63;;
44438;SDS011;30145;48.874;10.186;2024-01-10T07:20:16;35.00;;;18.50;;
44438;SDS011;30145;48.874;10.186;2024-01-10T07:22:43;23.83;;;14.40;;
44438;SDS011;30145;48.874;10.186;2024-01-10T07:25:11;39.77;;;17.67;;
44438;SDS011;30145;48.874;10.186;2024-01-10T07:27:41;36.80;;;19.37;;
44438;SDS011;30145;48.874;10.186;2024-01-10T07:30:08;30.33;;;15.63;;
44438;SDS011;30145;48.874;10.186;2024-01-10T07:32:40;26.07;;;14.70;;
44438;SDS011;30145;48.874;10.186;2024-01-10T07:35:08;33.90;;;17.20;;
44438;SDS011;30145;48.874;10.186;2024-01-10T07:37:37;34.60;;;18.43;;
44438;SDS011;30145;48.874;10.186;2024-01-10T07:40:04;28.87;;;16.50;;
44438;SDS011;30145;48.874;10.186;2024-01-10T07:42:35;23.93;;;13.93;;
44438;SDS011;30145;48.874;10.186;2024-01-10T07:45:03;21.53;;;13.97;;
44438;SDS011;30145;48.874;10.186;2024-01-10T07:47:31;27.03;;;15.23;;
44438;SDS011;30145;48.874;10.186;2024-01-10T07:49:58;28.20;;;15.47;;
44438;SDS011;30145;48.874;10.186;2024-01-10T07:52:26;27.67;;;16.07;;
44438;SDS011;30145;48.874;10.186;2024-01-10T07:54:53;27.80;;;16.17;;
44438;SDS011;30145;48.874;10.186;2024-01-10T07:57:20;25.23;;;14.47;;
44438;SDS011;30145;48.874;10.186;2024-01-10T07:59:47;23.93;;;14.40;;
44438;SDS011;30145;48.874;10.186;2024-01-10T08:02:16;29.20;;;14.77;;
44438;SDS011;30145;48.874;10.186;2024-01-10T08:04:43;26.43;;;14.17;;
44438;SDS011;30145;48.874;10.186;2024-01-10T08:07:10;23.43;;;14.30;;
44438;SDS011;30145;48.874;10.186;2024-01-10T08:09:38;29.27;;;15.57;;
44438;SDS011;30145;48.874;10.186;2024-01-10T08:12:05;23.27;;;15.60;;
44438;SDS011;30145;48.874;10.186;2024-01-10T08:14:33;27.83;;;15.30;;
44438;SDS011;30145;48.874;10.186;2024-01-10T08:17:01;24.47;;;16.00;;
44438;SDS011;30145;48.874;10.186;2024-01-10T08:19:28;28.43;;;16.23;;
44438;SDS011;30145;48.874;10.186;2024-01-10T08:21:55;32.63;;;16.27;;
44438;SDS011;30145;48.874;10.186;2024-01-10T08:24:23;29.63;;;15.93;;
44438;SDS011;30145;48.874;10.186;2024-01-10T08:26:50;22.80;;;13.83;;
44438;SDS011;30145;48.874;10.186;2024-01-10T08:29:18;25.43;;;14.90;;
44438;SDS011;30145;48.874;10.186;2024-01-10T08:31:46;28.43;;;16.20;;
44438;SDS011;30145;48.874;10.186;2024-01-10T08:34:13;26.63;;;16.77;;
44438;SDS011;30145;48.874;10.186;2024-01-10T08:36:40;26.43;;;15.57;;
44438;SDS011;30145;48.874;10.186;2024-01-10T08:39:07;26.37;;;14.93;;
44438;SDS011;30145;48.874;10.186;2024-01-10T08:41:34;24.10;;;15.93;;
44438;SDS011;30145;48.874;10.186;2024-01-10T08:44:03;25.83;;;15.33;;
44438;SDS011;30145;48.874;10.186;2024-01-10T08:46:30;24.37;;;14.50;;
44438;SDS011;30145;48.874;10.186;2024-01-10T08:48:58;28.13;;;17.33;;
44438;SDS011;30145;48.874;10.186;2024-01-10T08:51:25;28.00;;;17.97;;
44438;SDS011;30145;48.874;10.186;2024-01-10T08:53:52;24.40;;;15.33;;
44438;SDS011;30145;48.874;10.186;2024-01-10T08:56:19;25.97;;;15.67;;
44438;SDS011;30145;48.874;10.186;2024-01-10T08:58:46;26.00;;;15.10;;
44438;SDS011;30145;48.874;10.186;2024-01-10T09:01:13;25.80;;;15.57;;
44438;SDS011;30145;48.874;10.186;2024-01-10T09:03:41;26.73;;;14.77;;
44438;SDS011;30145;48.874;10.186;2024-01-10T09:06:08;25.33;;;15.90;;
44438;SDS011;30145;48.874;10.186;2024-01-10T09:08:36;24.17;;;14.77;;
44438;SDS011;30145;48.874;10.186;2024-01-10T09:11:06;26.33;;;15.83;;
44438;SDS011;30145;48.874;10.186;2024-01-10T09:13:33;24.67;;;15.37;;
44438;SDS011;30145;48.874;10.186;2024-01-10T09:16:01;26.67;;;15.47;;
44438;SDS011;30145;48.874;10.186;2024-01-10T09:18:28;25.50;;;16.40;;
44438;SDS011;30145;48.874;10.186;2024-01-10T09:20:55;22.67;;;14.90;;
44438;SDS011;30145;48.874;10.186;2024-01-10T09:23:23;24.47;;;15.07;;
44438;SDS011;30145;48.874;10.186;2024-01-10T09:25:50;22.90;;;15.37;;
44438;SDS011;30145;48.874;10.186;2024-01-10T09:28:17;25.50;;;14.80;;
44438;SDS011;30145;48.874;10.186;2024-01-10T09:30:44;28.47;;;15.03;;
44438;SDS011;30145;48.874;10.186;2024-01-10T09:33:11;22.80;;;14.90;;
44438;SDS011;30145;48.874;10.186;2024-01-10T09:35:39;23.87;;;15.77;;
44438;SDS011;30145;48.874;10.186;2024-01-10T09:38:06;24.90;;;16.10;;
44438;SDS011;30145;48.874;10.186;2024-01-10T09:40:33;25.20;;;16.37;;
44438;SDS011;30145;48.874;10.186;2024-01-10T09:43:00;26.73;;;16.07;;
44438;SDS011;30145;48.874;10.186;2024-01-10T09:45:27;26.23;;;16.10;;
44438;SDS011;30145;48.874;10.186;2024-01-10T09:47:58;24.30;;;14.83;;
44438;SDS011;30145;48.874;10.186;2024-01-10T09:50:25;22.93;;;14.97;;
44438;SDS011;30145;48.874;10.186;2024-01-10T09:52:53;24.67;;;15.70;;
44438;SDS011;30145;48.874;10.186;2024-01-10T09:55:36;28.93;;;15.73;;
44438;SDS011;30145;48.874;10.186;2024-01-10T09:58:07;22.50;;;14.53;;
44438;SDS011;30145;48.874;10.186;2024-01-10T10:00:35;25.33;;;15.57;;
44438;SDS011;30145;48.874;10.186;2024-01-10T10:03:09;28.10;;;16.07;;
44438;SDS011;30145;48.874;10.186;2024-01-10T10:05:39;25.87;;;15.13;;
44438;SDS011;30145;48.874;10.186;2024-01-10T10:08:09;25.63;;;14.33;;
44438;SDS011;30145;48.874;10.186;2024-01-10T10:10:37;24.07;;;15.37;;
44438;SDS011;30145;48.874;10.186;2024-01-10T10:13:09;26.67;;;15.87;;
44438;SDS011;30145;48.874;10.186;2024-01-10T10:15:40;26.93;;;15.67;;
44438;SDS011;30145;48.874;10.186;2024-01-10T10:18:13;34.47;;;20.07;;
44438;SDS011;30145;48.874;10.186;2024-01-10T10:20:40;24.20;;;14.97;;
44438;SDS011;30145;48.874;10.186;2024-01-10T10:23:08;25.30;;;14.57;;
44438;SDS011;30145;48.874;10.186;2024-01-10T10:25:44;27.00;;;17.00;;
44438;SDS011;30145;48.874;10.186;2024-01-10T10:28:12;24.80;;;15.73;;
44438;SDS011;30145;48.874;10.186;2024-01-10T10:30:43;27.67;;;15.33;;
44438;SDS011;30145;48.874;10.186;2024-01-10T10:33:12;28.47;;;14.63;;
44438;SDS011;30145;48.874;10.186;2024-01-10T10:35:39;22.33;;;15.17;;
44438;SDS011;30145;48.874;10.186;2024-01-10T10:38:07;27.87;;;15.73;;
44438;SDS011;30145;48.874;10.186;2024-01-10T10:40:38;25.33;;;14.83;;
44438;SDS011;30145;48.874;10.186;2024-01-10T10:43:05;22.70;;;15.13;;
44438;SDS011;30145;48.874;10.186;2024-01-10T10:45:37;28.13;;;15.17;;
44438;SDS011;30145;48.874;10.186;2024-01-10T10:48:04;23.07;;;15.50;;
44438;SDS011;30145;48.874;10.186;2024-01-10T10:50:34;29.53;;;16.33;;
44438;SDS011;30145;48.874;10.186;2024-01-10T10:53:03;25.43;;;15.60;;
44438;SDS011;30145;48.874;10.186;2024-01-10T10:55:30;25.77;;;15.73;;
44438;SDS011;30145;48.874;10.186;2024-01-10T10:57:58;24.10;;;14.57;;
44438;SDS011;30145;48.874;10.186;2024-01-10T11:00:26;28.23;;;15.47;;
44438;SDS011;30145;48.874;10.186;2024-01-10T11:02:54;28.27;;;16.33;;
44438;SDS011;30145;48.874;10.186;2024-01-10T11:05:23;22.80;;;14.07;;
44438;SDS011;30145;48.874;10.186;2024-01-10T11:07:51;27.67;;;16.67;;
44438;SDS011;30145;48.874;10.186;2024-01-10T11:10:23;26.63;;;16.00;;
44438;SDS011;30145;48.874;10.186;2024-01-10T11:21:34;26.27;;;15.50;;
44438;SDS011;30145;48.874;10.186;2024-01-10T11:24:16;29.87;;;15.73;;
44438;SDS011;30145;48.874;10.186;2024-01-10T11:26:44;25.97;;;15.97;;
44438;SDS011;30145;48.874;10.186;2024-01-10T11:29:11;26.43;;;15.50;;
44438;SDS011;30145;48.874;10.186;2024-01-10T11:31:39;22.33;;;15.13;;
44438;SDS011;30145;48.874;10.186;2024-01-10T11:34:06;25.13;;;14.80;;
44438;SDS011;30145;48.874;10.186;2024-01-10T11:36:35;22.67;;;14.27;;
44438;SDS011;30145;48.874;10.186;2024-01-10T11:39:05;24.67;;;14.80;;
44438;SDS011;30145;48.874;10.186;2024-01-10T11:41:33;21.83;;;14.50;;
44438;SDS011;30145;48.874;10.186;2024-01-10T11:46:40;25.37;;;15.47;;
44438;SDS011;30145;48.874;10.186;2024-01-10T11:49:11;23.90;;;15.53;;
44438;SDS011;30145;48.874;10.186;2024-01-10T11:51:43;28.17;;;15.53;;
44438;SDS011;30145;48.874;10.186;2024-01-10T11:57:28;24.30;;;14.50;;
44438;SDS011;30145;48.874;10.186;2024-01-10T11:59:57;25.73;;;14.60;;
44438;SDS011;30145;48.874;10.186;2024-01-10T12:02:29;21.13;;;13.83;;
44438;SDS011;30145;48.874;10.186;2024-01-10T12:05:00;26.33;;;16.40;;
44438;SDS011;30145;48.874;10.186;2024-01-10T12:07:28;28.00;;;16.90;;
44438;SDS011;30145;48.874;10.186;2024-01-10T12:09:56;25.30;;;14.77;;
44438;SDS011;30145;48.874;10.186;2024-01-10T12:12:23;25.07;;;15.70;;
44438;SDS011;30145;48.874;10.186;2024-01-10T12:14:50;26.13;;;15.57;;
44438;SDS011;30145;48.874;10.186;2024-01-10T12:17:18;28.60;;;17.30;;
44438;SDS011;30145;48.874;10.186;2024-01-10T12:19:45;25.60;;;15.57;;
44438;SDS011;30145;48.874;10.186;2024-01-10T12:22:16;25.77;;;16.03;;
44438;SDS011;30145;48.874;10.186;2024-01-10T12:24:43;28.17;;;15.80;;
44438;SDS011;30145;48.874;10.186;2024-01-10T12:27:12;27.87;;;16.00;;
44438;SDS011;30145;48.874;10.186;2024-01-10T12:29:39;28.07;;;16.67;;
44438;SDS011;30145;48.874;10.186;2024-01-10T12:32:07;23.90;;;14.90;;
44438;SDS011;30145;48.874;10.186;2024-01-10T12:34:38;30.30;;;17.20;;
44438;SDS011;30145;48.874;10.186;2024-01-10T12:37:06;30.90;;;17.63;;
44438;SDS011;30145;48.874;10.186;2024-01-10T12:39:35;31.10;;;16.83;;
44438;SDS011;30145;48.874;10.186;2024-01-10T12:42:03;30.90;;;17.70;;
44438;SDS011;30145;48.874;10.186;2024-01-10T12:44:31;27.87;;;16.43;;
44438;SDS011;30145;48.874;10.186;2024-01-10T12:46:58;31.47;;;18.23;;
44438;SDS011;30145;48.874;10.186;2024-01-10T12:49:26;34.77;;;19.20;;
44438;SDS011;30145;48.874;10.186;2024-01-10T12:51:53;30.63;;;17.43;;
44438;SDS011;30145;48.874;10.186;2024-01-10T12:54:21;32.33;;;19.10;;
44438;SDS011;30145;48.874;10.186;2024-01-10T12:56:49;27.47;;;17.07;;
44438;SDS011;30145;48.874;10.186;2024-01-10T12:59:16;29.77;;;17.50;;
44438;SDS011;30145;48.874;10.186;2024-01-10T13:01:43;32.47;;;18.33;;
44438;SDS011;30145;48.874;10.186;2024-01-10T13:04:12;32.53;;;17.40;;
44438;SDS011;30145;48.874;10.186;2024-01-10T13:06:39;29.87;;;16.97;;
44438;SDS011;30145;48.874;10.186;2024-01-10T13:09:07;33.73;;;20.17;;
44438;SDS011;30145;48.874;10.186;2024-01-10T13:11:34;32.10;;;18.57;;
44438;SDS011;30145;48.874;10.186;2024-01-10T13:14:01;35.17;;;19.30;;
44438;SDS011;30145;48.874;10.186;2024-01-10T13:16:28;30.57;;;18.03;;
44438;SDS011;30145;48.874;10.186;2024-01-10T13:18:57;30.33;;;17.97;;
44438;SDS011;30145;48.874;10.186;2024-01-10T13:21:26;31.77;;;18.67;;
44438;SDS011;30145;48.874;10.186;2024-01-10T13:23:53;31.83;;;19.33;;
44438;SDS011;30145;48.874;10.186;2024-01-10T13:26:20;28.70;;;18.17;;
44438;SDS011;30145;48.874;10.186;2024-01-10T13:28:47;29.17;;;17.87;;
44438;SDS011;30145;48.874;10.186;2024-01-10T13:31:14;31.50;;;18.80;;
44438;SDS011;30145;48.874;10.186;2024-01-10T13:33:42;27.80;;;18.83;;
44438;SDS011;30145;48.874;10.186;2024-01-10T13:36:11;34.57;;;19.33;;
44438;SDS011;30145;48.874;10.186;2024-01-10T13:38:38;34.67;;;19.83;;
44438;SDS011;30145;48.874;10.186;2024-01-10T13:41:05;37.33;;;20.13;;
44438;SDS011;30145;48.874;10.186;2024-01-10T13:43:32;28.93;;;18.90;;
44438;SDS011;30145;48.874;10.186;2024-01-10T13:45:59;35.30;;;19.20;;
44438;SDS011;30145;48.874;10.186;2024-01-10T13:48:28;50.00;;;26.70;;
44438;SDS011;30145;48.874;10.186;2024-01-10T13:50:56;31.53;;;19.13;;
44438;SDS011;30145;48.874;10.186;2024-01-10T13:53:23;32.90;;;18.67;;
44438;SDS011;30145;48.874;10.186;2024-01-10T13:55:50;33.80;;;17.70;;
44438;SDS011;30145;48.874;10.186;2024-01-10T13:58:17;35.57;;;20.60;;
44438;SDS011;30145;48.874;10.186;2024-01-10T14:00:45;30.20;;;19.07;;
44438;SDS011;30145;48.874;10.186;2024-01-10T14:03:13;34.03;;;19.87;;
44438;SDS011;30145;48.874;10.186;2024-01-10T14:05:40;28.70;;;18.97;;
44438;SDS011;30145;48.874;10.186;2024-01-10T14:08:07;32.10;;;20.27;;
44438;SDS011;30145;48.874;10.186;2024-01-10T14:10:37;32.67;;;18.77;;
44438;SDS011;30145;48.874;10.186;2024-01-10T14:13:05;34.40;;;20.50;;
44438;SDS011;30145;48.874;10.186;2024-01-10T14:15:33;30.93;;;19.43;;
44438;SDS011;30145;48.874;10.186;2024-01-10T14:18:00;34.03;;;19.23;;
44438;SDS011;30145;48.874;10.186;2024-01-10T14:20:27;37.40;;;21.47;;
44438;SDS011;30145;48.874;10.186;2024-01-10T14:22:54;29.00;;;18.67;;
44438;SDS011;30145;48.874;10.186;2024-01-10T14:25:22;34.00;;;18.33;;
44438;SDS011;30145;48.874;10.186;2024-01-10T14:27:49;36.27;;;20.17;;
44438;SDS011;30145;48.874;10.186;2024-01-10T14:30:15;30.67;;;19.03;;
44438;SDS011;30145;48.874;10.186;2024-01-10T14:32:43;35.53;;;21.03;;